Irvington, Virginia
Current Conditions -  °F | °C
As of 9:55 PM on Tuesday 21 Oct 2014 (Local Time) from KW75 Reporting Station
Overcast Overcast  
Wind Chill: 57°   Ceiling: 11000
Heat Index: 57°   Visibility: 10mi
Dew Point: 54°   Wind: 12mph
Humidity: 88%   Direction: 340°NNW
Pressure: 29.87"   Gusts: 20mph
Location:  37.66°N, 76.42°W
Report Text: KW75 220155Z AUTO 34010G17KT 10SM SCT011 OVC110 14/12 A2987 RMK AO1 P0002 T01400120
Loading
Personal Weather Stations






























Interactive Weather Map
Tropical Storm Tracking
New forecast layout! Learn more

10-Day Weather Forecast

Advertisements
Track Severe Weather on mobile